sensor_id;sensor_type;location;lat;lon;timestamp;temperature;humidity
59556;DHT22;45374;52.746;6.304;2023-01-15T00:01:35;6.60;99.90
59556;DHT22;45374;52.746;6.304;2023-01-15T00:04:03;6.60;99.90
59556;DHT22;45374;52.746;6.304;2023-01-15T00:06:30;6.50;99.90
59556;DHT22;45374;52.746;6.304;2023-01-15T00:08:57;6.50;99.90
59556;DHT22;45374;52.746;6.304;2023-01-15T00:11:23;6.60;99.90
59556;DHT22;45374;52.746;6.304;2023-01-15T00:13:49;6.50;99.90
59556;DHT22;45374;52.746;6.304;2023-01-15T00:16:20;6.50;99.90
59556;DHT22;45374;52.746;6.304;2023-01-15T00:18:51;6.50;99.90
59556;DHT22;45374;52.746;6.304;2023-01-15T00:21:17;6.50;99.90
59556;DHT22;45374;52.746;6.304;2023-01-15T00:23:42;6.50;99.90
59556;DHT22;45374;52.746;6.304;2023-01-15T00:26:29;6.50;99.90
59556;DHT22;45374;52.746;6.304;2023-01-15T00:29:14;6.50;99.90
59556;DHT22;45374;52.746;6.304;2023-01-15T00:31:40;6.50;99.90
59556;DHT22;45374;52.746;6.304;2023-01-15T00:34:06;6.50;99.90
59556;DHT22;45374;52.746;6.304;2023-01-15T00:36:32;6.50;99.90
59556;DHT22;45374;52.746;6.304;2023-01-15T00:39:02;6.50;99.90
59556;DHT22;45374;52.746;6.304;2023-01-15T00:41:28;6.50;99.90
59556;DHT22;45374;52.746;6.304;2023-01-15T00:43:53;6.50;99.90
59556;DHT22;45374;52.746;6.304;2023-01-15T00:46:20;6.50;99.90
59556;DHT22;45374;52.746;6.304;2023-01-15T00:48:45;6.50;99.90
59556;DHT22;45374;52.746;6.304;2023-01-15T00:51:11;6.50;99.90
59556;DHT22;45374;52.746;6.304;2023-01-15T00:53:36;6.50;99.90
59556;DHT22;45374;52.746;6.304;2023-01-15T00:56:02;6.40;99.90
59556;DHT22;45374;52.746;6.304;2023-01-15T00:58:28;6.40;99.90
59556;DHT22;45374;52.746;6.304;2023-01-15T01:00:55;6.40;99.90
59556;DHT22;45374;52.746;6.304;2023-01-15T01:03:21;6.40;99.90
59556;DHT22;45374;52.746;6.304;2023-01-15T01:05:46;6.40;99.90
59556;DHT22;45374;52.746;6.304;2023-01-15T01:08:12;6.40;99.90
59556;DHT22;45374;52.746;6.304;2023-01-15T01:10:38;6.40;99.90
59556;DHT22;45374;52.746;6.304;2023-01-15T01:13:04;6.30;99.90
59556;DHT22;45374;52.746;6.304;2023-01-15T01:15:32;6.30;99.90
59556;DHT22;45374;52.746;6.304;2023-01-15T01:17:58;6.30;99.90
59556;DHT22;45374;52.746;6.304;2023-01-15T01:20:24;6.30;99.90
59556;DHT22;45374;52.746;6.304;2023-01-15T01:22:51;6.30;99.90
59556;DHT22;45374;52.746;6.304;2023-01-15T01:25:17;6.30;99.90
59556;DHT22;45374;52.746;6.304;2023-01-15T01:27:44;6.30;99.90
59556;DHT22;45374;52.746;6.304;2023-01-15T01:30:10;6.20;99.90
59556;DHT22;45374;52.746;6.304;2023-01-15T01:32:36;6.30;99.90
59556;DHT22;45374;52.746;6.304;2023-01-15T01:35:02;6.20;99.90
59556;DHT22;45374;52.746;6.304;2023-01-15T01:37:27;6.20;99.90
59556;DHT22;45374;52.746;6.304;2023-01-15T01:39:53;6.20;99.90
59556;DHT22;45374;52.746;6.304;2023-01-15T01:42:19;6.20;99.90
59556;DHT22;45374;52.746;6.304;2023-01-15T01:47:19;6.20;99.90
59556;DHT22;45374;52.746;6.304;2023-01-15T01:49:53;6.20;99.90
59556;DHT22;45374;52.746;6.304;2023-01-15T01:52:41;6.20;99.90
59556;DHT22;45374;52.746;6.304;2023-01-15T01:55:08;6.20;99.90
59556;DHT22;45374;52.746;6.304;2023-01-15T01:57:35;6.20;99.90
59556;DHT22;45374;52.746;6.304;2023-01-15T02:00:02;6.10;99.90
59556;DHT22;45374;52.746;6.304;2023-01-15T02:02:29;6.10;99.90
59556;DHT22;45374;52.746;6.304;2023-01-15T02:04:55;6.10;99.90
59556;DHT22;45374;52.746;6.304;2023-01-15T02:07:21;6.10;99.90
59556;DHT22;45374;52.746;6.304;2023-01-15T02:09:47;6.10;99.90
59556;DHT22;45374;52.746;6.304;2023-01-15T02:12:23;6.10;99.90
59556;DHT22;45374;52.746;6.304;2023-01-15T02:15:11;6.10;99.90
59556;DHT22;45374;52.746;6.304;2023-01-15T02:18:00;6.00;99.90
59556;DHT22;45374;52.746;6.304;2023-01-15T02:20:44;6.10;99.90
59556;DHT22;45374;52.746;6.304;2023-01-15T02:23:29;6.00;99.90
59556;DHT22;45374;52.746;6.304;2023-01-15T02:28:45;6.10;99.90
59556;DHT22;45374;52.746;6.304;2023-01-15T02:31:14;6.10;99.90
59556;DHT22;45374;52.746;6.304;2023-01-15T02:34:01;6.00;99.90
59556;DHT22;45374;52.746;6.304;2023-01-15T02:36:32;6.00;99.90
59556;DHT22;45374;52.746;6.304;2023-01-15T02:39:04;6.10;99.90
59556;DHT22;45374;52.746;6.304;2023-01-15T02:41:45;6.00;99.90
59556;DHT22;45374;52.746;6.304;2023-01-15T02:44:13;6.00;99.90
59556;DHT22;45374;52.746;6.304;2023-01-15T02:46:42;6.00;99.90
59556;DHT22;45374;52.746;6.304;2023-01-15T02:49:13;6.00;99.90
59556;DHT22;45374;52.746;6.304;2023-01-15T02:51:48;6.00;99.90
59556;DHT22;45374;52.746;6.304;2023-01-15T02:54:16;6.00;99.90
59556;DHT22;45374;52.746;6.304;2023-01-15T02:56:44;6.00;99.90
59556;DHT22;45374;52.746;6.304;2023-01-15T02:59:18;6.00;99.90
59556;DHT22;45374;52.746;6.304;2023-01-15T03:01:56;6.00;99.90
59556;DHT22;45374;52.746;6.304;2023-01-15T03:04:46;6.00;99.90
59556;DHT22;45374;52.746;6.304;2023-01-15T03:07:58;6.00;99.90
59556;DHT22;45374;52.746;6.304;2023-01-15T03:10:16;6.00;99.90
59556;DHT22;45374;52.746;6.304;2023-01-15T03:12:49;6.00;99.90
59556;DHT22;45374;52.746;6.304;2023-01-15T03:16:03;6.00;99.90
59556;DHT22;45374;52.746;6.304;2023-01-15T03:26:59;6.00;99.90
59556;DHT22;45374;52.746;6.304;2023-01-15T03:29:29;6.00;99.90
59556;DHT22;45374;52.746;6.304;2023-01-15T03:32:01;6.00;99.90
59556;DHT22;45374;52.746;6.304;2023-01-15T03:34:35;6.00;99.90
59556;DHT22;45374;52.746;6.304;2023-01-15T03:37:02;6.00;99.90
59556;DHT22;45374;52.746;6.304;2023-01-15T03:39:28;6.00;99.90
59556;DHT22;45374;52.746;6.304;2023-01-15T03:47:21;6.00;99.90
59556;DHT22;45374;52.746;6.304;2023-01-15T03:52:33;5.90;99.90
59556;DHT22;45374;52.746;6.304;2023-01-15T03:58:06;5.80;99.90
59556;DHT22;45374;52.746;6.304;2023-01-15T04:00:40;5.80;99.90
59556;DHT22;45374;52.746;6.304;2023-01-15T04:03:08;5.80;99.90
59556;DHT22;45374;52.746;6.304;2023-01-15T04:05:36;5.80;99.90
59556;DHT22;45374;52.746;6.304;2023-01-15T04:08:03;5.80;99.90
59556;DHT22;45374;52.746;6.304;2023-01-15T04:10:29;5.80;99.90
59556;DHT22;45374;52.746;6.304;2023-01-15T04:12:56;5.80;99.90
59556;DHT22;45374;52.746;6.304;2023-01-15T04:15:21;5.90;99.90
59556;DHT22;45374;52.746;6.304;2023-01-15T04:17:47;5.90;99.90
59556;DHT22;45374;52.746;6.304;2023-01-15T04:20:12;5.90;99.90
59556;DHT22;45374;52.746;6.304;2023-01-15T04:22:38;5.90;99.90
59556;DHT22;45374;52.746;6.304;2023-01-15T04:25:05;5.80;99.90
59556;DHT22;45374;52.746;6.304;2023-01-15T04:27:31;5.90;99.90
59556;DHT22;45374;52.746;6.304;2023-01-15T04:29:57;5.80;99.90
59556;DHT22;45374;52.746;6.304;2023-01-15T04:32:22;5.80;99.90
59556;DHT22;45374;52.746;6.304;2023-01-15T04:34:48;5.80;99.90
59556;DHT22;45374;52.746;6.304;2023-01-15T04:37:15;5.80;99.90
59556;DHT22;45374;52.746;6.304;2023-01-15T04:39:41;5.80;99.90
59556;DHT22;45374;52.746;6.304;2023-01-15T04:42:13;5.80;99.90
59556;DHT22;45374;52.746;6.304;2023-01-15T04:44:59;5.70;99.90
59556;DHT22;45374;52.746;6.304;2023-01-15T04:47:24;5.70;99.90
59556;DHT22;45374;52.746;6.304;2023-01-15T04:49:50;5.70;99.90
59556;DHT22;45374;52.746;6.304;2023-01-15T04:52:16;5.70;99.90
59556;DHT22;45374;52.746;6.304;2023-01-15T04:54:41;5.70;99.90
59556;DHT22;45374;52.746;6.304;2023-01-15T04:57:07;5.70;99.90
59556;DHT22;45374;52.746;6.304;2023-01-15T04:59:33;5.70;99.90
59556;DHT22;45374;52.746;6.304;2023-01-15T05:01:58;5.70;99.90
59556;DHT22;45374;52.746;6.304;2023-01-15T05:04:24;5.60;99.90
59556;DHT22;45374;52.746;6.304;2023-01-15T05:06:50;5.60;99.90
59556;DHT22;45374;52.746;6.304;2023-01-15T05:09:16;5.60;99.90
59556;DHT22;45374;52.746;6.304;2023-01-15T05:11:41;5.60;99.90
59556;DHT22;45374;52.746;6.304;2023-01-15T05:14:08;5.50;99.90
59556;DHT22;45374;52.746;6.304;2023-01-15T05:16:34;5.60;99.90
59556;DHT22;45374;52.746;6.304;2023-01-15T05:19:02;5.60;99.90
59556;DHT22;45374;52.746;6.304;2023-01-15T05:21:34;5.60;99.90
59556;DHT22;45374;52.746;6.304;2023-01-15T05:24:01;5.60;99.90
59556;DHT22;45374;52.746;6.304;2023-01-15T05:26:29;5.60;99.90
59556;DHT22;45374;52.746;6.304;2023-01-15T05:28:57;5.60;99.90
59556;DHT22;45374;52.746;6.304;2023-01-15T05:31:24;5.60;99.90
59556;DHT22;45374;52.746;6.304;2023-01-15T05:33:51;5.60;99.90
59556;DHT22;45374;52.746;6.304;2023-01-15T05:36:20;5.50;99.90
59556;DHT22;45374;52.746;6.304;2023-01-15T05:38:46;5.50;99.90
59556;DHT22;45374;52.746;6.304;2023-01-15T05:41:14;5.50;99.90
59556;DHT22;45374;52.746;6.304;2023-01-15T05:44:07;5.50;99.90
59556;DHT22;45374;52.746;6.304;2023-01-15T05:46:34;5.40;99.90
59556;DHT22;45374;52.746;6.304;2023-01-15T05:49:01;5.50;99.90
59556;DHT22;45374;52.746;6.304;2023-01-15T05:51:27;5.50;99.90
59556;DHT22;45374;52.746;6.304;2023-01-15T05:53:53;5.60;99.90
59556;DHT22;45374;52.746;6.304;2023-01-15T05:56:19;5.50;99.90
59556;DHT22;45374;52.746;6.304;2023-01-15T05:58:45;5.50;99.90
59556;DHT22;45374;52.746;6.304;2023-01-15T06:01:10;5.50;99.90
59556;DHT22;45374;52.746;6.304;2023-01-15T06:03:36;5.40;99.90
59556;DHT22;45374;52.746;6.304;2023-01-15T06:06:02;5.30;99.90
59556;DHT22;45374;52.746;6.304;2023-01-15T06:08:29;5.30;99.90
59556;DHT22;45374;52.746;6.304;2023-01-15T06:10:55;5.30;99.90
59556;DHT22;45374;52.746;6.304;2023-01-15T06:13:21;5.20;99.90
59556;DHT22;45374;52.746;6.304;2023-01-15T06:15:46;5.30;99.90
59556;DHT22;45374;52.746;6.304;2023-01-15T06:18:12;5.20;99.90
59556;DHT22;45374;52.746;6.304;2023-01-15T06:20:41;5.20;99.90
59556;DHT22;45374;52.746;6.304;2023-01-15T06:23:07;5.20;99.90
59556;DHT22;45374;52.746;6.304;2023-01-15T06:25:35;5.20;99.90
59556;DHT22;45374;52.746;6.304;2023-01-15T06:28:02;5.20;99.90
59556;DHT22;45374;52.746;6.304;2023-01-15T06:30:28;5.10;99.90
59556;DHT22;45374;52.746;6.304;2023-01-15T06:32:54;5.10;99.90
59556;DHT22;45374;52.746;6.304;2023-01-15T06:35:19;5.00;99.90
59556;DHT22;45374;52.746;6.304;2023-01-15T06:37:45;5.00;99.90
59556;DHT22;45374;52.746;6.304;2023-01-15T06:40:12;4.90;99.90
59556;DHT22;45374;52.746;6.304;2023-01-15T06:42:37;4.90;99.90
59556;DHT22;45374;52.746;6.304;2023-01-15T06:45:21;4.90;99.90
59556;DHT22;45374;52.746;6.304;2023-01-15T06:48:06;5.00;99.90
59556;DHT22;45374;52.746;6.304;2023-01-15T06:50:32;4.90;99.90
59556;DHT22;45374;52.746;6.304;2023-01-15T06:52:57;4.90;99.90
59556;DHT22;45374;52.746;6.304;2023-01-15T06:55:23;4.90;99.90
59556;DHT22;45374;52.746;6.304;2023-01-15T06:57:49;4.90;99.90
59556;DHT22;45374;52.746;6.304;2023-01-15T07:00:14;4.90;99.90
59556;DHT22;45374;52.746;6.304;2023-01-15T07:02:40;4.90;99.90
59556;DHT22;45374;52.746;6.304;2023-01-15T07:05:07;4.90;99.90
59556;DHT22;45374;52.746;6.304;2023-01-15T07:07:33;4.90;99.90
59556;DHT22;45374;52.746;6.304;2023-01-15T07:09:58;5.00;99.90
59556;DHT22;45374;52.746;6.304;2023-01-15T07:12:24;5.00;99.90
59556;DHT22;45374;52.746;6.304;2023-01-15T07:14:51;5.00;99.90
59556;DHT22;45374;52.746;6.304;2023-01-15T07:17:18;5.00;99.90
59556;DHT22;45374;52.746;6.304;2023-01-15T07:19:45;4.90;99.90
59556;DHT22;45374;52.746;6.304;2023-01-15T07:22:11;4.90;99.90
59556;DHT22;45374;52.746;6.304;2023-01-15T07:24:36;4.90;99.90
59556;DHT22;45374;52.746;6.304;2023-01-15T07:27:02;4.90;99.90
59556;DHT22;45374;52.746;6.304;2023-01-15T07:29:28;4.90;99.90
59556;DHT22;45374;52.746;6.304;2023-01-15T07:31:55;4.90;99.90
59556;DHT22;45374;52.746;6.304;2023-01-15T07:34:21;4.90;99.90
59556;DHT22;45374;52.746;6.304;2023-01-15T07:36:47;4.90;99.90
59556;DHT22;45374;52.746;6.304;2023-01-15T07:39:12;4.70;99.90
59556;DHT22;45374;52.746;6.304;2023-01-15T07:41:44;4.70;99.90
59556;DHT22;45374;52.746;6.304;2023-01-15T07:44:32;4.70;99.90
59556;DHT22;45374;52.746;6.304;2023-01-15T07:47:22;4.60;99.90
59556;DHT22;45374;52.746;6.304;2023-01-15T07:50:09;4.70;99.90
59556;DHT22;45374;52.746;6.304;2023-01-15T07:52:35;4.60;99.90
59556;DHT22;45374;52.746;6.304;2023-01-15T07:55:01;4.60;99.90
59556;DHT22;45374;52.746;6.304;2023-01-15T07:57:28;4.60;99.90
59556;DHT22;45374;52.746;6.304;2023-01-15T07:59:54;4.60;99.90
59556;DHT22;45374;52.746;6.304;2023-01-15T08:02:19;4.60;99.90
59556;DHT22;45374;52.746;6.304;2023-01-15T08:04:45;4.70;99.90
59556;DHT22;45374;52.746;6.304;2023-01-15T08:07:13;4.70;99.90
59556;DHT22;45374;52.746;6.304;2023-01-15T08:09:39;4.60;99.90
59556;DHT22;45374;52.746;6.304;2023-01-15T08:12:05;4.60;99.90
59556;DHT22;45374;52.746;6.304;2023-01-15T08:14:49;4.60;99.90
59556;DHT22;45374;52.746;6.304;2023-01-15T08:17:38;4.60;99.90
59556;DHT22;45374;52.746;6.304;2023-01-15T08:20:08;4.70;99.90
59556;DHT22;45374;52.746;6.304;2023-01-15T08:22:34;4.70;99.90
59556;DHT22;45374;52.746;6.304;2023-01-15T08:25:00;4.70;99.90
59556;DHT22;45374;52.746;6.304;2023-01-15T08:27:26;4.70;99.90
59556;DHT22;45374;52.746;6.304;2023-01-15T08:29:53;4.70;99.90
59556;DHT22;45374;52.746;6.304;2023-01-15T08:32:18;4.70;99.90
59556;DHT22;45374;52.746;6.304;2023-01-15T08:34:44;4.80;99.90
59556;DHT22;45374;52.746;6.304;2023-01-15T08:37:10;4.80;99.90
59556;DHT22;45374;52.746;6.304;2023-01-15T08:39:35;4.90;99.90
59556;DHT22;45374;52.746;6.304;2023-01-15T08:42:01;4.90;99.90
59556;DHT22;45374;52.746;6.304;2023-01-15T08:44:26;5.00;99.90
59556;DHT22;45374;52.746;6.304;2023-01-15T08:46:52;5.00;99.90
59556;DHT22;45374;52.746;6.304;2023-01-15T08:49:19;5.10;99.90
59556;DHT22;45374;52.746;6.304;2023-01-15T08:51:46;5.10;99.90
59556;DHT22;45374;52.746;6.304;2023-01-15T08:54:17;5.10;99.90
59556;DHT22;45374;52.746;6.304;2023-01-15T08:56:43;5.00;99.90
59556;DHT22;45374;52.746;6.304;2023-01-15T08:59:10;4.90;99.90
59556;DHT22;45374;52.746;6.304;2023-01-15T09:01:36;4.60;99.90
59556;DHT22;45374;52.746;6.304;2023-01-15T09:04:01;4.40;99.90
59556;DHT22;45374;52.746;6.304;2023-01-15T09:06:27;4.20;99.90
59556;DHT22;45374;52.746;6.304;2023-01-15T09:08:55;4.00;99.90
59556;DHT22;45374;52.746;6.304;2023-01-15T09:11:20;4.10;99.90
59556;DHT22;45374;52.746;6.304;2023-01-15T09:13:46;4.10;99.90
59556;DHT22;45374;52.746;6.304;2023-01-15T09:16:12;4.00;99.90
59556;DHT22;45374;52.746;6.304;2023-01-15T09:18:38;4.10;99.90
59556;DHT22;45374;52.746;6.304;2023-01-15T09:21:04;4.20;99.90
59556;DHT22;45374;52.746;6.304;2023-01-15T09:23:31;4.10;99.90
59556;DHT22;45374;52.746;6.304;2023-01-15T09:26:01;4.00;99.90
59556;DHT22;45374;52.746;6.304;2023-01-15T09:28:30;4.00;99.90
59556;DHT22;45374;52.746;6.304;2023-01-15T09:30:55;4.10;99.90
59556;DHT22;45374;52.746;6.304;2023-01-15T09:33:21;4.10;99.90
59556;DHT22;45374;52.746;6.304;2023-01-15T09:35:47;4.20;99.90
59556;DHT22;45374;52.746;6.304;2023-01-15T09:38:16;4.20;99.90
59556;DHT22;45374;52.746;6.304;2023-01-15T09:40:53;4.30;99.90
59556;DHT22;45374;52.746;6.304;2023-01-15T09:45:53;4.40;99.90
59556;DHT22;45374;52.746;6.304;2023-01-15T09:48:31;4.50;99.90
59556;DHT22;45374;52.746;6.304;2023-01-15T09:53:48;4.60;99.90
59556;DHT22;45374;52.746;6.304;2023-01-15T09:56:27;4.70;99.90
59556;DHT22;45374;52.746;6.304;2023-01-15T09:58:55;4.80;99.90
59556;DHT22;45374;52.746;6.304;2023-01-15T10:01:28;4.80;99.90
59556;DHT22;45374;52.746;6.304;2023-01-15T10:06:55;4.90;99.90
59556;DHT22;45374;52.746;6.304;2023-01-15T10:09:29;4.90;99.90
59556;DHT22;45374;52.746;6.304;2023-01-15T10:12:06;4.90;99.90
59556;DHT22;45374;52.746;6.304;2023-01-15T10:17:31;4.90;99.90
59556;DHT22;45374;52.746;6.304;2023-01-15T10:20:04;4.90;99.90
59556;DHT22;45374;52.746;6.304;2023-01-15T10:22:43;4.90;99.90
59556;DHT22;45374;52.746;6.304;2023-01-15T10:25:20;5.00;99.90
59556;DHT22;45374;52.746;6.304;2023-01-15T10:27:50;5.10;99.90
59556;DHT22;45374;52.746;6.304;2023-01-15T10:32:50;5.20;99.90
59556;DHT22;45374;52.746;6.304;2023-01-15T10:45:55;5.20;99.90
59556;DHT22;45374;52.746;6.304;2023-01-15T10:48:39;5.20;99.90
59556;DHT22;45374;52.746;6.304;2023-01-15T10:54:44;5.30;99.90
59556;DHT22;45374;52.746;6.304;2023-01-15T10:59:48;5.50;99.90
59556;DHT22;45374;52.746;6.304;2023-01-15T11:02:38;5.50;99.90
59556;DHT22;45374;52.746;6.304;2023-01-15T11:05:05;5.70;99.90
59556;DHT22;45374;52.746;6.304;2023-01-15T11:07:40;5.70;99.90
59556;DHT22;45374;52.746;6.304;2023-01-15T11:10:08;5.80;99.90
59556;DHT22;45374;52.746;6.304;2023-01-15T11:15:56;5.90;99.90
59556;DHT22;45374;52.746;6.304;2023-01-15T11:18:42;6.00;99.90
59556;DHT22;45374;52.746;6.304;2023-01-15T11:21:27;5.90;99.90
59556;DHT22;45374;52.746;6.304;2023-01-15T11:23:55;5.90;99.90
59556;DHT22;45374;52.746;6.304;2023-01-15T11:26:27;6.00;99.90
59556;DHT22;45374;52.746;6.304;2023-01-15T11:28:54;6.20;99.90
59556;DHT22;45374;52.746;6.304;2023-01-15T11:31:21;6.20;99.90
59556;DHT22;45374;52.746;6.304;2023-01-15T11:34:02;6.30;99.90
59556;DHT22;45374;52.746;6.304;2023-01-15T11:36:29;6.30;99.90
59556;DHT22;45374;52.746;6.304;2023-01-15T11:38:55;6.30;99.90
59556;DHT22;45374;52.746;6.304;2023-01-15T11:41:33;6.30;99.90
59556;DHT22;45374;52.746;6.304;2023-01-15T11:44:20;6.40;99.90
59556;DHT22;45374;52.746;6.304;2023-01-15T11:47:12;6.40;99.90
59556;DHT22;45374;52.746;6.304;2023-01-15T11:49:57;6.50;99.90
59556;DHT22;45374;52.746;6.304;2023-01-15T11:52:50;6.60;99.90
59556;DHT22;45374;52.746;6.304;2023-01-15T11:55:19;6.60;99.90
59556;DHT22;45374;52.746;6.304;2023-01-15T11:57:45;6.70;99.90
59556;DHT22;45374;52.746;6.304;2023-01-15T12:00:19;6.70;99.90
59556;DHT22;45374;52.746;6.304;2023-01-15T12:02:47;6.60;99.90
59556;DHT22;45374;52.746;6.304;2023-01-15T12:05:23;6.50;99.90
59556;DHT22;45374;52.746;6.304;2023-01-15T12:07:50;6.50;99.90
59556;DHT22;45374;52.746;6.304;2023-01-15T12:10:32;6.50;99.90
59556;DHT22;45374;52.746;6.304;2023-01-15T12:13:26;6.50;99.90
59556;DHT22;45374;52.746;6.304;2023-01-15T12:16:15;6.60;99.90
59556;DHT22;45374;52.746;6.304;2023-01-15T12:27:16;6.60;99.90
59556;DHT22;45374;52.746;6.304;2023-01-15T12:32:18;6.60;99.90
59556;DHT22;45374;52.746;6.304;2023-01-15T12:34:57;6.60;99.90
59556;DHT22;45374;52.746;6.304;2023-01-15T12:37:41;6.60;99.90
59556;DHT22;45374;52.746;6.304;2023-01-15T12:40:29;6.60;99.90
59556;DHT22;45374;52.746;6.304;2023-01-15T12:42:58;6.60;99.90
59556;DHT22;45374;52.746;6.304;2023-01-15T12:45:46;6.50;99.90
59556;DHT22;45374;52.746;6.304;2023-01-15T12:48:26;6.60;99.90
59556;DHT22;45374;52.746;6.304;2023-01-15T12:50:56;6.60;99.90
59556;DHT22;45374;52.746;6.304;2023-01-15T12:53:45;6.50;99.90
59556;DHT22;45374;52.746;6.304;2023-01-15T12:56:32;6.30;99.90
59556;DHT22;45374;52.746;6.304;2023-01-15T12:59:17;6.10;99.90
59556;DHT22;45374;52.746;6.304;2023-01-15T13:02:17;6.00;99.90
59556;DHT22;45374;52.746;6.304;2023-01-15T13:04:52;6.00;99.90
59556;DHT22;45374;52.746;6.304;2023-01-15T13:10:23;6.10;99.90
59556;DHT22;45374;52.746;6.304;2023-01-15T13:13:24;6.20;99.90
59556;DHT22;45374;52.746;6.304;2023-01-15T13:15:55;6.30;99.90
59556;DHT22;45374;52.746;6.304;2023-01-15T13:18:27;6.40;99.90
59556;DHT22;45374;52.746;6.304;2023-01-15T13:20:57;6.40;99.90
59556;DHT22;45374;52.746;6.304;2023-01-15T13:23:35;6.50;99.90
59556;DHT22;45374;52.746;6.304;2023-01-15T13:26:40;6.50;99.90
59556;DHT22;45374;52.746;6.304;2023-01-15T13:29:33;6.50;99.90
59556;DHT22;45374;52.746;6.304;2023-01-15T13:32:14;6.60;99.90
59556;DHT22;45374;52.746;6.304;2023-01-15T13:37:49;6.90;99.90
59556;DHT22;45374;52.746;6.304;2023-01-15T13:40:26;6.90;99.90
59556;DHT22;45374;52.746;6.304;2023-01-15T13:42:53;6.90;99.90
59556;DHT22;45374;52.746;6.304;2023-01-15T13:45:37;6.90;99.90
59556;DHT22;45374;52.746;6.304;2023-01-15T13:48:31;6.90;99.90
59556;DHT22;45374;52.746;6.304;2023-01-15T13:50:59;6.80;99.90
59556;DHT22;45374;52.746;6.304;2023-01-15T13:53:38;6.80;99.90
59556;DHT22;45374;52.746;6.304;2023-01-15T13:56:09;6.70;99.90
59556;DHT22;45374;52.746;6.304;2023-01-15T13:58:56;6.70;99.90
59556;DHT22;45374;52.746;6.304;2023-01-15T14:01:25;6.70;99.90
59556;DHT22;45374;52.746;6.304;2023-01-15T14:06:47;6.60;99.90
59556;DHT22;45374;52.746;6.304;2023-01-15T14:09:26;6.50;99.90
59556;DHT22;45374;52.746;6.304;2023-01-15T14:12:00;5.00;99.90
59556;DHT22;45374;52.746;6.304;2023-01-15T14:23:25;4.80;99.90
59556;DHT22;45374;52.746;6.304;2023-01-15T14:26:07;4.90;99.90
59556;DHT22;45374;52.746;6.304;2023-01-15T14:28:53;4.90;99.90
59556;DHT22;45374;52.746;6.304;2023-01-15T14:34:12;5.10;99.90
59556;DHT22;45374;52.746;6.304;2023-01-15T14:42:30;5.20;99.90
59556;DHT22;45374;52.746;6.304;2023-01-15T14:47:56;5.20;99.90
59556;DHT22;45374;52.746;6.304;2023-01-15T14:50:41;5.20;99.90
59556;DHT22;45374;52.746;6.304;2023-01-15T15:04:13;5.40;99.90
59556;DHT22;45374;52.746;6.304;2023-01-15T15:06:50;5.20;99.90
59556;DHT22;45374;52.746;6.304;2023-01-15T15:09:37;5.40;99.90
59556;DHT22;45374;52.746;6.304;2023-01-15T15:12:39;5.30;99.90
59556;DHT22;45374;52.746;6.304;2023-01-15T15:18:01;5.50;99.90
59556;DHT22;45374;52.746;6.304;2023-01-15T15:20:36;5.50;99.90
59556;DHT22;45374;52.746;6.304;2023-01-15T15:23:41;5.60;99.90
59556;DHT22;45374;52.746;6.304;2023-01-15T15:26:28;5.60;99.90
59556;DHT22;45374;52.746;6.304;2023-01-15T15:28:58;5.60;99.90
59556;DHT22;45374;52.746;6.304;2023-01-15T15:31:24;5.60;99.90
59556;DHT22;45374;52.746;6.304;2023-01-15T15:33:53;5.70;99.90
59556;DHT22;45374;52.746;6.304;2023-01-15T15:36:20;5.40;99.90
59556;DHT22;45374;52.746;6.304;2023-01-15T15:39:19;5.30;99.90
59556;DHT22;45374;52.746;6.304;2023-01-15T15:41:48;5.40;99.90
59556;DHT22;45374;52.746;6.304;2023-01-15T15:44:54;5.20;99.90
59556;DHT22;45374;52.746;6.304;2023-01-15T15:47:41;5.40;99.90
59556;DHT22;45374;52.746;6.304;2023-01-15T15:50:27;5.50;99.90
59556;DHT22;45374;52.746;6.304;2023-01-15T15:52:55;5.40;99.90
59556;DHT22;45374;52.746;6.304;2023-01-15T15:55:35;5.50;99.90
59556;DHT22;45374;52.746;6.304;2023-01-15T15:58:02;5.60;99.90
59556;DHT22;45374;52.746;6.304;2023-01-15T16:00:37;5.50;99.90
59556;DHT22;45374;52.746;6.304;2023-01-15T16:03:28;5.70;99.90
59556;DHT22;45374;52.746;6.304;2023-01-15T16:06:03;5.40;99.90
59556;DHT22;45374;52.746;6.304;2023-01-15T16:08:32;5.50;99.90
59556;DHT22;45374;52.746;6.304;2023-01-15T16:11:00;5.40;99.90
59556;DHT22;45374;52.746;6.304;2023-01-15T16:13:39;5.40;99.90
59556;DHT22;45374;52.746;6.304;2023-01-15T16:16:06;5.50;99.90
59556;DHT22;45374;52.746;6.304;2023-01-15T16:18:39;5.30;99.90
59556;DHT22;45374;52.746;6.304;2023-01-15T16:21:19;5.40;99.90
59556;DHT22;45374;52.746;6.304;2023-01-15T16:24:05;5.40;99.90
59556;DHT22;45374;52.746;6.304;2023-01-15T16:26:38;5.40;99.90
59556;DHT22;45374;52.746;6.304;2023-01-15T16:29:13;5.50;99.90
59556;DHT22;45374;52.746;6.304;2023-01-15T16:31:40;5.50;99.90
59556;DHT22;45374;52.746;6.304;2023-01-15T16:34:05;5.40;99.90
59556;DHT22;45374;52.746;6.304;2023-01-15T16:36:39;5.50;99.90
59556;DHT22;45374;52.746;6.304;2023-01-15T16:39:19;5.60;99.90
59556;DHT22;45374;52.746;6.304;2023-01-15T16:41:46;5.60;99.90
59556;DHT22;45374;52.746;6.304;2023-01-15T16:44:37;5.70;99.90
59556;DHT22;45374;52.746;6.304;2023-01-15T16:47:04;5.60;99.90
59556;DHT22;45374;52.746;6.304;2023-01-15T16:49:32;5.70;99.90
59556;DHT22;45374;52.746;6.304;2023-01-15T16:52:02;5.60;99.90
59556;DHT22;45374;52.746;6.304;2023-01-15T16:54:45;5.70;99.90
59556;DHT22;45374;52.746;6.304;2023-01-15T16:57:40;5.60;99.90
59556;DHT22;45374;52.746;6.304;2023-01-15T17:00:11;5.60;99.90
59556;DHT22;45374;52.746;6.304;2023-01-15T17:02:50;5.60;99.90
59556;DHT22;45374;52.746;6.304;2023-01-15T17:05:22;5.60;99.90
59556;DHT22;45374;52.746;6.304;2023-01-15T17:07:49;5.60;99.90
59556;DHT22;45374;52.746;6.304;2023-01-15T17:10:24;5.60;99.90
59556;DHT22;45374;52.746;6.304;2023-01-15T17:12:51;5.60;99.90
59556;DHT22;45374;52.746;6.304;2023-01-15T17:17:49;5.60;99.90
59556;DHT22;45374;52.746;6.304;2023-01-15T17:20:16;5.70;99.90
59556;DHT22;45374;52.746;6.304;2023-01-15T17:22:45;5.70;99.90
59556;DHT22;45374;52.746;6.304;2023-01-15T17:25:27;5.70;99.90
59556;DHT22;45374;52.746;6.304;2023-01-15T17:28:02;5.70;99.90
59556;DHT22;45374;52.746;6.304;2023-01-15T17:30:29;5.70;99.90
59556;DHT22;45374;52.746;6.304;2023-01-15T17:33:02;5.70;99.90
59556;DHT22;45374;52.746;6.304;2023-01-15T17:35:30;5.70;99.90
59556;DHT22;45374;52.746;6.304;2023-01-15T17:37:56;5.60;99.90
59556;DHT22;45374;52.746;6.304;2023-01-15T17:40:22;5.70;99.90
59556;DHT22;45374;52.746;6.304;2023-01-15T17:42:48;5.60;99.90
59556;DHT22;45374;52.746;6.304;2023-01-15T17:45:23;5.60;99.90
59556;DHT22;45374;52.746;6.304;2023-01-15T17:47:49;5.70;99.90
59556;DHT22;45374;52.746;6.304;2023-01-15T17:50:15;5.60;99.90
59556;DHT22;45374;52.746;6.304;2023-01-15T17:52:42;5.50;99.90
59556;DHT22;45374;52.746;6.304;2023-01-15T17:55:25;5.50;99.90
59556;DHT22;45374;52.746;6.304;2023-01-15T17:58:11;5.60;99.90
59556;DHT22;45374;52.746;6.304;2023-01-15T18:00:56;5.50;99.90
59556;DHT22;45374;52.746;6.304;2023-01-15T18:03:49;5.40;99.90
59556;DHT22;45374;52.746;6.304;2023-01-15T18:06:34;5.50;99.90
59556;DHT22;45374;52.746;6.304;2023-01-15T18:09:02;5.40;99.90
59556;DHT22;45374;52.746;6.304;2023-01-15T18:11:28;5.40;99.90